Time,TemperatureF,DewpointF,PressureIn,WindDirection,WindDirectionDegrees,WindSpeedMPH,WindSpeedGustMPH,Humidity,HourlyPrecipIn,Conditions,Clouds,dailyrainin,SoftwareType,DateUTC
2013-05-16 00:01:00,72.7,23.9,25.37,SW,225,7.6,7.6,16,0.00,,---,0.00,VWS V14.01,2013-05-16 05:01:00,
2013-05-16 00:06:00,73.0,24.2,25.37,SW,225,7.4,7.8,16,0.00,,---,0.00,VWS V14.01,2013-05-16 05:06:00,
2013-05-16 00:11:00,73.0,24.2,25.37,SW,225,7.8,7.8,16,0.00,,---,0.00,VWS V14.01,2013-05-16 05:11:00,
2013-05-16 00:16:00,72.9,24.1,25.37,SW,225,7.6,7.6,16,0.00,,---,0.00,VWS V14.01,2013-05-16 05:16:00,
2013-05-16 00:21:00,72.9,24.1,25.37,SSW,202,6.3,6.3,16,0.00,,---,0.00,VWS V14.01,2013-05-16 05:21:00,
2013-05-16 00:26:00,72.7,23.9,25.37,SW,225,7.4,7.4,16,0.00,,---,0.00,VWS V14.01,2013-05-16 05:26:00,
2013-05-16 00:31:00,72.7,23.9,25.37,SW,225,6.3,6.5,16,0.00,,---,0.00,VWS V14.01,2013-05-16 05:31:00,
2013-05-16 00:36:00,72.7,23.9,25.37,SW,225,5.6,5.6,16,0.00,,---,0.00,VWS V14.01,2013-05-16 05:36:00,
2013-05-16 00:41:00,72.7,23.9,25.37,SW,225,6.3,6.3,16,0.00,,---,0.00,VWS V14.01,2013-05-16 05:41:00,
2013-05-16 00:46:00,72.9,24.1,25.37,SW,225,8.1,9.8,16,0.00,,---,0.00,VWS V14.01,2013-05-16 05:46:00,
2013-05-16 00:51:00,73.0,24.2,25.37,SW,225,6.3,6.3,16,0.00,,---,0.00,VWS V14.01,2013-05-16 05:51:00,
2013-05-16 00:56:00,73.0,24.2,25.37,SW,225,6.7,7.8,16,0.00,,---,0.00,VWS V14.01,2013-05-16 05:56:00,
2013-05-16 01:01:00,73.2,24.4,25.37,SW,225,4.0,5.4,16,0.00,,---,0.00,VWS V14.01,2013-05-16 06:01:00,
2013-05-16 01:06:00,72.9,24.1,25.37,SW,225,4.9,5.4,16,0.00,,---,0.00,VWS V14.01,2013-05-16 06:06:00,
2013-05-16 01:11:00,72.7,23.9,25.37,SW,225,4.9,4.9,16,0.00,,---,0.00,VWS V14.01,2013-05-16 06:11:00,
2013-05-16 01:16:00,72.7,23.9,25.37,SW,225,3.8,4.0,16,0.00,,---,0.00,VWS V14.01,2013-05-16 06:16:00,
2013-05-16 01:21:00,72.7,23.9,25.37,SW,225,3.1,3.1,16,0.00,,---,0.00,VWS V14.01,2013-05-16 06:21:00,
2013-05-16 01:26:00,72.5,23.8,25.37,SW,225,3.6,6.5,16,0.00,,---,0.00,VWS V14.01,2013-05-16 06:26:00,
2013-05-16 01:31:00,72.5,23.8,25.37,WSW,248,6.3,6.5,16,0.00,,---,0.00,VWS V14.01,2013-05-16 06:31:00,
2013-05-16 01:36:00,73.0,24.2,25.37,WSW,248,8.7,8.7,16,0.00,,---,0.00,VWS V14.01,2013-05-16 06:36:00,
2013-05-16 01:41:00,73.4,24.5,25.37,WSW,248,10.3,12.1,16,0.00,,---,0.00,VWS V14.01,2013-05-16 06:41:00,
2013-05-16 01:46:00,73.6,24.7,25.37,WSW,248,9.8,13.2,16,0.00,,---,0.00,VWS V14.01,2013-05-16 06:46:00,
2013-05-16 01:51:00,73.4,24.5,25.37,SW,225,7.8,10.3,16,0.00,,---,0.00,VWS V14.01,2013-05-16 06:51:00,
2013-05-16 01:56:00,73.4,24.5,25.37,WSW,248,10.3,12.3,16,0.00,,---,0.00,VWS V14.01,2013-05-16 06:56:00,
2013-05-16 02:01:00,73.6,24.7,25.37,WSW,248,10.1,10.3,16,0.00,,---,0.00,VWS V14.01,2013-05-16 07:01:00,
2013-05-16 02:06:00,73.8,24.8,25.34,WSW,248,9.8,10.7,16,0.00,,---,0.00,VWS V14.01,2013-05-16 07:06:00,
2013-05-16 02:11:00,74.1,25.1,25.34,WSW,248,13.0,13.0,16,0.00,,---,0.00,VWS V14.01,2013-05-16 07:11:00,
2013-05-16 02:16:00,74.3,25.2,25.34,WSW,248,12.3,13.0,16,0.00,,---,0.00,VWS V14.01,2013-05-16 07:16:00,
2013-05-16 02:21:00,74.5,25.4,25.34,WSW,248,13.2,15.2,16,0.00,,---,0.00,VWS V14.01,2013-05-16 07:21:00,
2013-05-16 02:26:00,74.5,25.4,25.34,WSW,248,13.2,14.5,16,0.00,,---,0.00,VWS V14.01,2013-05-16 07:26:00,
2013-05-16 02:32:00,74.7,25.5,25.34,WSW,248,12.3,15.9,16,0.00,,---,0.00,VWS V14.01,2013-05-16 07:32:00,
2013-05-16 02:37:00,74.5,25.4,25.34,WSW,248,10.5,15.4,16,0.00,,---,0.00,VWS V14.01,2013-05-16 07:37:00,
2013-05-16 02:42:00,74.5,25.4,25.34,WSW,248,13.2,15.4,16,0.00,,---,0.00,VWS V14.01,2013-05-16 07:42:00,
2013-05-16 02:47:00,74.7,25.5,25.34,WSW,248,19.7,19.7,16,0.00,,---,0.00,VWS V14.01,2013-05-16 07:47:00,
2013-05-16 02:52:00,74.7,25.5,25.34,WSW,248,15.2,15.7,16,0.00,,---,0.00,VWS V14.01,2013-05-16 07:52:00,
2013-05-16 02:57:00,74.8,25.7,25.34,WSW,248,11.2,14.1,16,0.00,,---,0.00,VWS V14.01,2013-05-16 07:57:00,
2013-05-16 03:02:00,74.8,25.7,25.34,WSW,248,13.0,17.7,16,0.00,,---,0.00,VWS V14.01,2013-05-16 08:02:00,
2013-05-16 03:07:00,74.8,25.7,25.34,WSW,248,16.8,17.2,16,0.00,,---,0.00,VWS V14.01,2013-05-16 08:07:00,
2013-05-16 03:12:00,74.5,25.4,25.34,West,270,10.7,13.9,16,0.00,,---,0.00,VWS V14.01,2013-05-16 08:12:00,
2013-05-16 03:17:00,74.1,25.1,25.34,WSW,248,12.1,12.3,16,0.00,,---,0.00,VWS V14.01,2013-05-16 08:17:00,
2013-05-16 03:22:00,73.8,24.8,25.34,WSW,248,12.5,13.9,16,0.00,,---,0.00,VWS V14.01,2013-05-16 08:22:00,
2013-05-16 03:27:00,73.6,24.7,25.34,West,270,13.0,13.0,16,0.00,,---,0.00,VWS V14.01,2013-05-16 08:27:00,
2013-05-16 03:32:00,73.2,24.4,25.34,WSW,248,15.2,15.2,16,0.00,,---,0.00,VWS V14.01,2013-05-16 08:32:00,
2013-05-16 03:37:00,73.0,24.2,25.34,WSW,248,9.8,10.7,16,0.00,,---,0.00,VWS V14.01,2013-05-16 08:37:00,
2013-05-16 03:42:00,72.7,23.9,25.34,West,270,8.7,8.7,16,0.00,,---,0.00,VWS V14.01,2013-05-16 08:42:00,
2013-05-16 03:47:00,72.5,23.8,25.34,West,270,8.5,9.4,16,0.00,,---,0.00,VWS V14.01,2013-05-16 08:47:00,
2013-05-16 03:52:00,71.6,23.1,25.34,West,270,7.4,7.8,16,0.00,,---,0.00,VWS V14.01,2013-05-16 08:52:00,
2013-05-16 03:57:00,71.1,24.1,25.34,West,270,5.4,7.6,17,0.00,,---,0.00,VWS V14.01,2013-05-16 08:57:00,
2013-05-16 04:02:00,71.1,24.1,25.34,West,270,4.9,5.6,17,0.00,,---,0.00,VWS V14.01,2013-05-16 09:02:00,
2013-05-16 04:07:00,71.2,24.2,25.37,West,270,6.5,7.2,17,0.00,,---,0.00,VWS V14.01,2013-05-16 09:07:00,
2013-05-16 04:12:00,71.1,24.1,25.37,WSW,248,4.3,4.3,17,0.00,,---,0.00,VWS V14.01,2013-05-16 09:12:00,
2013-05-16 04:17:00,70.9,23.9,25.37,SW,225,4.3,6.0,17,0.00,,---,0.00,VWS V14.01,2013-05-16 09:17:00,
2013-05-16 04:22:00,70.7,23.8,25.37,WSW,248,4.0,5.8,17,0.00,,---,0.00,VWS V14.01,2013-05-16 09:22:00,
2013-05-16 04:27:00,70.9,23.9,25.37,WSW,248,4.9,6.3,17,0.00,,---,0.00,VWS V14.01,2013-05-16 09:27:00,
2013-05-16 04:32:00,70.9,23.9,25.37,SW,225,4.3,7.4,17,0.00,,---,0.00,VWS V14.01,2013-05-16 09:32:00,
2013-05-16 04:37:00,70.7,23.8,25.37,SW,225,4.0,4.0,17,0.00,,---,0.00,VWS V14.01,2013-05-16 09:37:00,
2013-05-16 04:42:00,70.7,23.8,25.37,SW,225,4.0,4.0,17,0.00,,---,0.00,VWS V14.01,2013-05-16 09:42:00,
2013-05-16 04:47:00,70.9,23.9,25.37,SW,225,6.0,6.0,17,0.00,,---,0.00,VWS V14.01,2013-05-16 09:47:00,
2013-05-16 04:52:00,71.1,24.1,25.37,SW,225,4.7,5.4,17,0.00,,---,0.00,VWS V14.01,2013-05-16 09:52:00,
2013-05-16 04:57:00,70.9,23.9,25.37,SW,225,3.4,3.4,17,0.00,,---,0.00,VWS V14.01,2013-05-16 09:57:00,
2013-05-16 05:02:00,70.0,23.2,25.37,South,180,3.1,4.3,17,0.00,,---,0.00,VWS V14.01,2013-05-16 10:02:00,
2013-05-16 05:07:00,70.0,23.2,25.37,SSW,202,2.5,3.1,17,0.00,,---,0.00,VWS V14.01,2013-05-16 10:07:00,
2013-05-16 05:12:00,69.6,20.0,25.37,SSW,202,2.5,2.5,15,0.00,,---,0.00,VWS V14.01,2013-05-16 10:12:00,
2013-05-16 05:17:00,69.8,23.1,25.37,SW,225,3.4,3.4,17,0.00,,---,0.00,VWS V14.01,2013-05-16 10:17:00,
2013-05-16 05:22:00,70.0,23.2,25.39,SW,225,4.0,4.0,17,0.00,,---,0.00,VWS V14.01,2013-05-16 10:22:00,
2013-05-16 05:27:00,70.0,23.2,25.39,SW,225,4.9,5.8,17,0.00,,---,0.00,VWS V14.01,2013-05-16 10:27:00,
2013-05-16 05:32:00,70.0,23.2,25.39,SW,225,6.3,6.5,17,0.00,,---,0.00,VWS V14.01,2013-05-16 10:32:00,
2013-05-16 05:37:00,70.2,23.4,25.37,SW,225,4.9,4.9,17,0.00,,---,0.00,VWS V14.01,2013-05-16 10:37:00,
2013-05-16 05:42:00,70.2,23.4,25.37,SW,225,5.6,6.0,17,0.00,,---,0.00,VWS V14.01,2013-05-16 10:42:00,
2013-05-16 05:47:00,69.8,23.1,25.37,SW,225,5.4,5.6,17,0.00,,---,0.00,VWS V14.01,2013-05-16 10:47:00,
2013-05-16 05:52:00,69.8,23.1,25.37,SW,225,6.5,6.5,17,0.00,,---,0.00,VWS V14.01,2013-05-16 10:52:00,
2013-05-16 05:57:00,70.2,23.4,25.37,SW,225,6.5,7.6,17,0.00,,---,0.00,VWS V14.01,2013-05-16 10:57:00,
2013-05-16 06:02:00,70.3,23.5,25.37,SW,225,5.8,6.5,17,0.00,,---,0.00,VWS V14.01,2013-05-16 11:02:00,
2013-05-16 06:07:00,70.3,23.5,25.34,SW,225,6.0,7.6,17,0.00,,---,0.00,VWS V14.01,2013-05-16 11:07:00,
2013-05-16 06:12:00,70.3,18.9,25.34,SW,225,5.6,6.3,14,0.00,,---,0.00,VWS V14.01,2013-05-16 11:12:00,
2013-05-16 06:17:00,70.3,18.9,25.34,SW,225,5.6,5.6,14,0.00,,---,0.00,VWS V14.01,2013-05-16 11:17:00,
2013-05-16 06:22:00,70.3,18.9,25.37,SW,225,6.5,6.5,14,0.00,,---,0.00,VWS V14.01,2013-05-16 11:22:00,
2013-05-16 06:27:00,70.7,19.2,25.37,SW,225,6.0,6.5,14,0.00,,---,0.00,VWS V14.01,2013-05-16 11:27:00,
2013-05-16 06:32:00,70.5,19.1,25.37,SW,225,6.0,6.5,14,0.00,,---,0.00,VWS V14.01,2013-05-16 11:32:00,
2013-05-16 06:37:00,70.7,19.2,25.34,SW,225,7.6,8.5,14,0.00,,---,0.00,VWS V14.01,2013-05-16 11:37:00,
2013-05-16 06:42:00,70.5,19.1,25.34,SW,225,7.8,8.5,14,0.00,,---,0.00,VWS V14.01,2013-05-16 11:42:00,
2013-05-16 06:47:00,70.7,19.2,25.34,SW,225,7.4,7.4,14,0.00,,---,0.00,VWS V14.01,2013-05-16 11:47:00,
2013-05-16 06:52:00,70.5,19.1,25.34,SSW,202,5.6,5.6,14,0.00,,---,0.00,VWS V14.01,2013-05-16 11:52:00,
2013-05-16 06:57:00,70.7,19.2,25.34,SSW,202,3.8,3.8,14,0.00,,---,0.00,VWS V14.01,2013-05-16 11:57:00,
2013-05-16 07:02:00,70.2,18.8,25.34,SSW,202,4.0,6.3,14,0.00,,---,0.00,VWS V14.01,2013-05-16 12:02:00,
2013-05-16 07:07:00,69.6,20.0,25.37,SSE,158,2.0,2.0,15,0.00,,---,0.00,VWS V14.01,2013-05-16 12:07:00,
2013-05-16 07:12:00,69.6,20.0,25.37,SSE,158,3.6,4.9,15,0.00,,---,0.00,VWS V14.01,2013-05-16 12:12:00,
2013-05-16 07:17:00,70.9,19.4,25.37,South,180,2.9,2.9,14,0.00,,---,0.00,VWS V14.01,2013-05-16 12:17:00,
2013-05-16 07:22:00,71.1,19.5,25.37,South,180,0.9,0.9,14,0.00,,---,0.00,VWS V14.01,2013-05-16 12:22:00,
2013-05-16 07:27:00,71.2,19.6,25.37,SW,225,2.9,2.9,14,0.00,,---,0.00,VWS V14.01,2013-05-16 12:27:00,
2013-05-16 07:32:00,72.1,20.4,25.37,SW,225,5.6,5.6,14,0.00,,---,0.00,VWS V14.01,2013-05-16 12:32:00,
2013-05-16 07:37:00,72.9,20.9,25.39,SW,225,5.4,5.4,14,0.00,,---,0.00,VWS V14.01,2013-05-16 12:37:00,
2013-05-16 07:42:00,73.2,21.2,25.39,SW,225,6.3,6.3,14,0.00,,---,0.00,VWS V14.01,2013-05-16 12:42:00,
2013-05-16 07:47:00,73.6,19.8,25.39,SSW,202,2.9,3.4,13,0.00,,---,0.00,VWS V14.01,2013-05-16 12:47:00,
2013-05-16 07:52:00,73.9,20.0,25.39,SW,225,3.8,3.8,13,0.00,,---,0.00,VWS V14.01,2013-05-16 12:52:00,
2013-05-16 07:57:00,74.5,20.5,25.39,WSW,248,6.0,6.0,13,0.00,,---,0.00,VWS V14.01,2013-05-16 12:57:00,
2013-05-16 08:02:00,74.8,20.7,25.39,SW,225,3.1,3.1,13,0.00,,---,0.00,VWS V14.01,2013-05-16 13:02:00,
2013-05-16 08:07:00,75.4,21.2,25.42,SSW,202,2.9,4.0,13,0.00,,---,0.00,VWS V14.01,2013-05-16 13:07:00,
2013-05-16 08:12:00,75.9,21.6,25.42,SW,225,2.9,3.4,13,0.00,,---,0.00,VWS V14.01,2013-05-16 13:12:00,
2013-05-16 08:17:00,77.0,22.4,25.42,SSW,202,2.0,3.6,13,0.00,,---,0.00,VWS V14.01,2013-05-16 13:17:00,
2013-05-16 08:22:00,77.4,22.7,25.42,West,270,1.6,1.6,13,0.00,,---,0.00,VWS V14.01,2013-05-16 13:22:00,
2013-05-16 08:27:00,78.4,27.0,25.42,South,180,0.0,0.0,15,0.00,,---,0.00,VWS V14.01,2013-05-16 13:27:00,
2013-05-16 08:32:00,79.3,22.4,25.42,South,180,5.6,5.6,12,0.00,,---,0.00,VWS V14.01,2013-05-16 13:32:00,
2013-05-16 08:37:00,79.5,22.5,25.42,SW,225,3.4,3.4,12,0.00,,---,0.00,VWS V14.01,2013-05-16 13:37:00,
2013-05-16 08:42:00,79.3,22.4,25.42,SW,225,4.0,4.7,12,0.00,,---,0.00,VWS V14.01,2013-05-16 13:42:00,
2013-05-16 08:47:00,79.3,22.4,25.42,SSW,202,2.9,2.9,12,0.00,,---,0.00,VWS V14.01,2013-05-16 13:47:00,
2013-05-16 08:52:00,80.2,28.4,25.42,SW,225,2.5,2.5,15,0.00,,---,0.00,VWS V14.01,2013-05-16 13:52:00,
2013-05-16 08:57:00,80.6,27.0,25.42,WSW,248,2.7,3.1,14,0.00,,---,0.00,VWS V14.01,2013-05-16 13:57:00,
2013-05-16 09:02:00,81.7,27.9,25.42,WSW,248,5.4,5.4,14,0.00,,---,0.00,VWS V14.01,2013-05-16 14:02:00,
2013-05-16 09:07:00,81.9,28.0,25.42,WSW,248,3.1,6.5,14,0.00,,---,0.00,VWS V14.01,2013-05-16 14:07:00,
2013-05-16 09:12:00,81.9,28.0,25.42,WSW,248,7.8,8.1,14,0.00,,---,0.00,VWS V14.01,2013-05-16 14:12:00,
2013-05-16 09:17:00,81.9,28.0,25.42,WSW,248,7.6,7.6,14,0.00,,---,0.00,VWS V14.01,2013-05-16 14:17:00,
2013-05-16 09:22:00,82.4,28.5,25.42,SW,225,5.4,6.3,14,0.00,,---,0.00,VWS V14.01,2013-05-16 14:22:00,
2013-05-16 09:27:00,82.9,28.9,25.42,WSW,248,6.0,7.6,14,0.00,,---,0.00,VWS V14.01,2013-05-16 14:27:00,
2013-05-16 09:32:00,82.8,28.8,25.42,WNW,292,4.9,6.3,14,0.00,,---,0.00,VWS V14.01,2013-05-16 14:32:00,
2013-05-16 09:37:00,83.3,29.2,25.42,WSW,248,10.3,10.7,14,0.00,,---,0.00,VWS V14.01,2013-05-16 14:37:00,
2013-05-16 09:42:00,83.3,29.2,25.42,West,270,9.8,9.8,14,0.00,,---,0.00,VWS V14.01,2013-05-16 14:42:00,
2013-05-16 09:47:00,83.8,29.6,25.42,WSW,248,5.8,10.1,14,0.00,,---,0.00,VWS V14.01,2013-05-16 14:47:00,
2013-05-16 09:52:00,84.0,29.8,25.42,WSW,248,10.7,10.7,14,0.00,,---,0.00,VWS V14.01,2013-05-16 14:52:00,
2013-05-16 09:57:00,84.2,28.1,25.42,West,270,4.9,8.5,13,0.00,,---,0.00,VWS V14.01,2013-05-16 14:57:00,
2013-05-16 10:02:00,84.7,28.5,25.42,WSW,248,3.8,8.7,13,0.00,,---,0.00,VWS V14.01,2013-05-16 15:02:00,
2013-05-16 10:07:00,86.4,29.8,25.42,West,270,3.6,3.6,13,0.00,,---,0.00,VWS V14.01,2013-05-16 15:07:00,
2013-05-16 10:12:00,86.2,29.6,25.42,West,270,7.4,7.4,13,0.00,,---,0.00,VWS V14.01,2013-05-16 15:12:00,
2013-05-16 10:17:00,88.2,31.2,25.42,NW,315,3.4,4.9,13,0.00,,---,0.00,VWS V14.01,2013-05-16 15:17:00,
2013-05-16 10:22:00,87.1,30.3,25.42,SSW,202,7.4,7.8,13,0.00,,---,0.00,VWS V14.01,2013-05-16 15:22:00,
2013-05-16 10:27:00,88.3,31.3,25.42,West,270,4.3,5.8,13,0.00,,---,0.00,VWS V14.01,2013-05-16 15:27:00,
2013-05-16 10:32:00,88.9,31.7,25.42,WNW,292,7.8,8.1,13,0.00,,---,0.00,VWS V14.01,2013-05-16 15:32:00,
2013-05-16 10:37:00,88.5,31.5,25.42,WNW,292,10.7,10.7,13,0.00,,---,0.00,VWS V14.01,2013-05-16 15:37:00,
2013-05-16 10:42:00,88.2,31.2,25.42,WNW,292,13.0,15.7,13,0.00,,---,0.00,VWS V14.01,2013-05-16 15:42:00,
2013-05-16 10:47:00,88.5,31.5,25.42,WNW,292,13.0,13.0,13,0.00,,---,0.00,VWS V14.01,2013-05-16 15:47:00,
2013-05-16 10:52:00,88.3,31.3,25.39,NNW,338,8.7,15.9,13,0.00,,---,0.00,VWS V14.01,2013-05-16 15:52:00,
2013-05-16 10:57:00,88.9,31.7,25.39,NNW,338,10.3,13.0,13,0.00,,---,0.00,VWS V14.01,2013-05-16 15:57:00,
2013-05-16 11:02:00,88.7,31.6,25.39,NW,315,14.3,17.5,13,0.00,,---,0.00,VWS V14.01,2013-05-16 16:02:00,
2013-05-16 11:07:00,89.1,31.9,25.39,WNW,292,8.5,10.7,13,0.00,,---,0.00,VWS V14.01,2013-05-16 16:07:00,
2013-05-16 11:12:00,89.4,32.2,25.39,NNW,338,11.0,11.4,13,0.00,,---,0.00,VWS V14.01,2013-05-16 16:12:00,
2013-05-16 11:18:00,90.9,31.3,25.39,NNE,22,2.7,2.9,12,0.00,,---,0.00,VWS V14.01,2013-05-16 16:18:00,
2013-05-16 11:23:00,91.8,32.0,25.39,WNW,292,7.6,7.6,12,0.00,,---,0.00,VWS V14.01,2013-05-16 16:23:00,
2013-05-16 11:28:00,90.5,31.0,25.39,NW,315,12.1,12.5,12,0.00,,---,0.00,VWS V14.01,2013-05-16 16:28:00,
2013-05-16 11:33:00,90.9,31.3,25.39,West,270,4.9,10.5,12,0.00,,---,0.00,VWS V14.01,2013-05-16 16:33:00,
2013-05-16 11:38:00,90.7,31.2,25.37,WNW,292,8.5,10.5,12,0.00,,---,0.00,VWS V14.01,2013-05-16 16:38:00,
2013-05-16 11:43:00,90.7,31.2,25.37,WNW,292,9.2,10.3,12,0.00,,---,0.00,VWS V14.01,2013-05-16 16:43:00,
2013-05-16 11:48:00,90.0,30.6,25.37,WNW,292,10.1,12.8,12,0.00,,---,0.00,VWS V14.01,2013-05-16 16:48:00,
2013-05-16 11:53:00,91.0,31.4,25.37,WNW,292,8.7,21.3,12,0.00,,---,0.00,VWS V14.01,2013-05-16 16:53:00,
2013-05-16 11:58:00,90.5,31.0,25.37,West,270,3.6,14.3,12,0.00,,---,0.00,VWS V14.01,2013-05-16 16:58:00,
2013-05-16 12:03:00,92.8,32.8,25.37,NW,315,11.0,12.5,12,0.00,,---,0.00,VWS V14.01,2013-05-16 17:03:00,
2013-05-16 12:08:00,93.0,33.0,25.37,WNW,292,5.8,15.4,12,0.00,,---,0.00,VWS V14.01,2013-05-16 17:08:00,
2013-05-16 12:13:00,95.0,32.3,25.37,ENE,68,2.0,2.0,11,0.00,,---,0.00,VWS V14.01,2013-05-16 17:13:00,
2013-05-16 12:18:00,94.3,31.8,25.37,West,270,7.2,9.8,11,0.00,,---,0.00,VWS V14.01,2013-05-16 17:18:00,
2013-05-16 12:23:00,94.6,32.0,25.37,WNW,292,6.3,6.3,11,0.00,,---,0.00,VWS V14.01,2013-05-16 17:23:00,
2013-05-16 12:28:00,93.9,31.5,25.37,NNW,338,10.3,12.3,11,0.00,,---,0.00,VWS V14.01,2013-05-16 17:28:00,
2013-05-16 12:33:00,94.6,32.0,25.37,North,0,11.9,11.9,11,0.00,,---,0.00,VWS V14.01,2013-05-16 17:33:00,
2013-05-16 12:38:00,96.1,33.2,25.37,NW,315,3.6,6.0,11,0.00,,---,0.00,VWS V14.01,2013-05-16 17:38:00,
2013-05-16 12:43:00,93.7,31.4,25.37,NNW,338,8.7,11.0,11,0.00,,---,0.00,VWS V14.01,2013-05-16 17:43:00,
2013-05-16 12:48:00,94.1,31.6,25.37,WSW,248,6.3,14.8,11,0.00,,---,0.00,VWS V14.01,2013-05-16 17:48:00,
2013-05-16 12:53:00,91.9,32.1,25.39,SW,225,11.2,14.3,12,0.00,,---,0.00,VWS V14.01,2013-05-16 17:53:00,
2013-05-16 12:58:00,91.8,32.0,25.39,WSW,248,15.4,15.4,12,0.00,,---,0.00,VWS V14.01,2013-05-16 17:58:00,
2013-05-16 13:03:00,91.4,31.7,25.39,SW,225,16.1,18.6,12,0.00,,---,0.00,VWS V14.01,2013-05-16 18:03:00,
2013-05-16 13:08:00,90.7,31.2,25.37,WSW,248,16.6,22.2,12,0.00,,---,0.00,VWS V14.01,2013-05-16 18:08:00,
2013-05-16 13:13:00,92.3,32.4,25.37,West,270,14.8,15.7,12,0.00,,---,0.00,VWS V14.01,2013-05-16 18:13:00,
2013-05-16 13:18:00,91.9,32.1,25.37,WSW,248,22.2,22.2,12,0.00,,---,0.00,VWS V14.01,2013-05-16 18:18:00,
2013-05-16 13:23:00,92.3,32.4,25.37,WNW,292,10.5,17.2,12,0.00,,---,0.00,VWS V14.01,2013-05-16 18:23:00,
2013-05-16 13:28:00,91.2,31.6,25.37,West,270,13.0,15.4,12,0.00,,---,0.00,VWS V14.01,2013-05-16 18:28:00,
2013-05-16 13:33:00,91.4,31.7,25.37,West,270,17.5,25.7,12,0.00,,---,0.00,VWS V14.01,2013-05-16 18:33:00,
2013-05-16 13:38:00,91.0,31.4,25.37,SW,225,25.1,25.1,12,0.00,,---,0.00,VWS V14.01,2013-05-16 18:38:00,
2013-05-16 13:43:00,90.9,31.3,25.37,WSW,248,22.8,22.8,12,0.00,,---,0.00,VWS V14.01,2013-05-16 18:43:00,
2013-05-16 13:48:00,91.4,31.7,25.37,WSW,248,10.3,13.6,12,0.00,,---,0.00,VWS V14.01,2013-05-16 18:48:00,
2013-05-16 13:53:00,91.0,31.4,25.34,West,270,17.7,20.8,12,0.00,,---,0.00,VWS V14.01,2013-05-16 18:53:00,
2013-05-16 13:58:00,91.2,31.6,25.34,WSW,248,28.0,28.4,12,0.00,,---,0.00,VWS V14.01,2013-05-16 18:58:00,
2013-05-16 14:03:00,91.4,31.7,25.34,SW,225,5.4,9.8,12,0.00,,---,0.00,VWS V14.01,2013-05-16 19:03:00,
2013-05-16 14:08:00,91.0,31.4,25.37,WSW,248,9.8,17.2,12,0.00,,---,0.00,VWS V14.01,2013-05-16 19:08:00,
2013-05-16 14:13:00,92.8,32.8,25.37,West,270,13.9,19.2,12,0.00,,---,0.00,VWS V14.01,2013-05-16 19:13:00,
2013-05-16 14:18:00,91.2,31.6,25.37,SW,225,5.4,13.4,12,0.00,,---,0.00,VWS V14.01,2013-05-16 19:18:00,
2013-05-16 14:23:00,93.0,33.0,25.37,WSW,248,15.9,15.9,12,0.00,,---,0.00,VWS V14.01,2013-05-16 19:23:00,
2013-05-16 14:28:00,92.1,32.3,25.37,West,270,19.7,22.4,12,0.00,,---,0.00,VWS V14.01,2013-05-16 19:28:00,
2013-05-16 14:33:00,91.6,31.9,25.37,SW,225,12.8,19.7,12,0.00,,---,0.00,VWS V14.01,2013-05-16 19:33:00,
2013-05-16 14:38:00,91.9,32.1,25.34,WSW,248,15.2,15.7,12,0.00,,---,0.00,VWS V14.01,2013-05-16 19:38:00,
2013-05-16 14:43:00,91.9,32.1,25.34,West,270,17.7,22.2,12,0.00,,---,0.00,VWS V14.01,2013-05-16 19:43:00,
2013-05-16 14:48:00,92.7,32.7,25.34,WNW,292,11.0,17.7,12,0.00,,---,0.00,VWS V14.01,2013-05-16 19:48:00,
2013-05-16 14:53:00,93.6,31.2,25.34,NNW,338,8.7,10.5,11,0.00,,---,0.00,VWS V14.01,2013-05-16 19:53:00,
2013-05-16 14:58:00,91.4,31.7,25.34,West,270,13.0,17.5,12,0.00,,---,0.00,VWS V14.01,2013-05-16 19:58:00,
2013-05-16 15:03:00,93.7,31.4,25.34,West,270,15.2,15.2,11,0.00,,---,0.00,VWS V14.01,2013-05-16 20:03:00,
2013-05-16 15:08:00,92.3,32.4,25.34,WSW,248,14.5,14.5,12,0.00,,---,0.00,VWS V14.01,2013-05-16 20:08:00,
2013-05-16 15:13:00,92.7,32.7,25.34,WSW,248,8.7,10.7,12,0.00,,---,0.00,VWS V14.01,2013-05-16 20:13:00,
2013-05-16 15:18:00,91.4,31.7,25.34,West,270,25.5,25.5,12,0.00,,---,0.00,VWS V14.01,2013-05-16 20:18:00,
2013-05-16 15:23:00,92.3,32.4,25.34,West,270,22.2,22.2,12,0.00,,---,0.00,VWS V14.01,2013-05-16 20:23:00,
2013-05-16 15:28:00,92.8,32.8,25.34,SW,225,9.6,12.8,12,0.00,,---,0.00,VWS V14.01,2013-05-16 20:28:00,
2013-05-16 15:33:00,93.2,31.0,25.34,West,270,5.6,9.8,11,0.00,,---,0.00,VWS V14.01,2013-05-16 20:33:00,
2013-05-16 15:38:00,92.8,32.8,25.34,West,270,9.8,11.0,12,0.00,,---,0.00,VWS V14.01,2013-05-16 20:38:00,
2013-05-16 15:43:00,93.2,31.0,25.34,West,270,17.7,17.7,11,0.00,,---,0.00,VWS V14.01,2013-05-16 20:43:00,
2013-05-16 15:48:00,91.6,31.9,25.34,SW,225,12.5,19.2,12,0.00,,---,0.00,VWS V14.01,2013-05-16 20:48:00,
2013-05-16 15:53:00,92.5,32.5,25.34,WSW,248,26.4,26.4,12,0.00,,---,0.00,VWS V14.01,2013-05-16 20:53:00,
2013-05-16 15:58:00,92.3,32.4,25.34,WSW,248,17.2,23.0,12,0.00,,---,0.00,VWS V14.01,2013-05-16 20:58:00,
2013-05-16 16:03:00,92.1,32.3,25.34,WSW,248,17.7,17.7,12,0.00,,---,0.00,VWS V14.01,2013-05-16 21:03:00,
2013-05-16 16:08:00,93.0,33.0,25.34,SW,225,10.1,10.1,12,0.00,,---,0.00,VWS V14.01,2013-05-16 21:08:00,
2013-05-16 16:13:00,93.4,31.1,25.34,WNW,292,16.1,16.1,11,0.00,,---,0.00,VWS V14.01,2013-05-16 21:13:00,
2013-05-16 16:18:00,92.5,32.5,25.34,WSW,248,12.5,16.3,12,0.00,,---,0.00,VWS V14.01,2013-05-16 21:18:00,
2013-05-16 16:23:00,92.7,32.7,25.31,WSW,248,23.9,23.9,12,0.00,,---,0.00,VWS V14.01,2013-05-16 21:23:00,
2013-05-16 16:28:00,91.9,32.1,25.31,WSW,248,15.2,26.4,12,0.00,,---,0.00,VWS V14.01,2013-05-16 21:28:00,
2013-05-16 16:33:00,92.3,32.4,25.31,WSW,248,10.5,12.1,12,0.00,,---,0.00,VWS V14.01,2013-05-16 21:33:00,
2013-05-16 16:38:00,92.5,32.5,25.31,SW,225,17.2,22.6,12,0.00,,---,0.00,VWS V14.01,2013-05-16 21:38:00,
2013-05-16 16:43:00,92.1,32.3,25.31,WSW,248,17.5,17.5,12,0.00,,---,0.00,VWS V14.01,2013-05-16 21:43:00,
2013-05-16 16:48:00,92.3,32.4,25.31,West,270,15.2,17.5,12,0.00,,---,0.00,VWS V14.01,2013-05-16 21:48:00,
2013-05-16 16:53:00,92.7,32.7,25.31,SW,225,14.3,14.3,12,0.00,,---,0.00,VWS V14.01,2013-05-16 21:53:00,
2013-05-16 16:58:00,93.2,31.0,25.31,South,180,4.0,9.8,11,0.00,,---,0.00,VWS V14.01,2013-05-16 21:58:00,
2013-05-16 17:03:00,93.2,31.0,25.31,WNW,292,14.5,14.5,11,0.00,,---,0.00,VWS V14.01,2013-05-16 22:03:00,
2013-05-16 17:08:00,92.3,32.4,25.31,West,270,10.1,13.2,12,0.00,,---,0.00,VWS V14.01,2013-05-16 22:08:00,
2013-05-16 17:13:00,92.3,32.4,25.31,West,270,20.1,20.1,12,0.00,,---,0.00,VWS V14.01,2013-05-16 22:13:00,
2013-05-16 17:18:00,91.8,32.0,25.31,SW,225,8.1,15.9,12,0.00,,---,0.00,VWS V14.01,2013-05-16 22:18:00,
2013-05-16 17:23:00,90.9,31.3,25.31,West,270,13.2,17.5,12,0.00,,---,0.00,VWS V14.01,2013-05-16 22:23:00,
2013-05-16 17:28:00,92.3,32.4,25.31,West,270,17.2,17.2,12,0.00,,---,0.00,VWS V14.01,2013-05-16 22:28:00,
2013-05-16 17:33:00,92.5,32.5,25.31,West,270,20.1,20.1,12,0.00,,---,0.00,VWS V14.01,2013-05-16 22:33:00,
2013-05-16 17:38:00,92.7,32.7,25.31,ENE,68,5.8,10.3,12,0.00,,---,0.00,VWS V14.01,2013-05-16 22:38:00,
2013-05-16 17:43:00,92.8,32.8,25.31,West,270,11.0,11.0,12,0.00,,---,0.00,VWS V14.01,2013-05-16 22:43:00,
2013-05-16 17:48:00,94.3,31.8,25.31,WNW,292,12.1,12.1,11,0.00,,---,0.00,VWS V14.01,2013-05-16 22:48:00,
2013-05-16 17:53:00,93.2,31.0,25.31,SW,225,14.5,14.8,11,0.00,,---,0.00,VWS V14.01,2013-05-16 22:53:00,
2013-05-16 17:58:00,92.5,32.5,25.31,West,270,19.9,19.9,12,0.00,,---,0.00,VWS V14.01,2013-05-16 22:58:00,
2013-05-16 18:03:00,91.6,31.9,25.31,WSW,248,10.1,10.1,12,0.00,,---,0.00,VWS V14.01,2013-05-16 23:03:00,
2013-05-16 18:08:00,91.2,31.6,25.31,WSW,248,13.0,17.0,12,0.00,,---,0.00,VWS V14.01,2013-05-16 23:08:00,
2013-05-16 18:13:00,91.2,31.6,25.31,West,270,10.3,10.7,12,0.00,,---,0.00,VWS V14.01,2013-05-16 23:13:00,
2013-05-16 18:18:00,91.6,31.9,25.31,WNW,292,7.8,15.2,12,0.00,,---,0.00,VWS V14.01,2013-05-16 23:18:00,
2013-05-16 18:23:00,91.2,31.6,25.31,SW,225,10.5,16.1,12,0.00,,---,0.00,VWS V14.01,2013-05-16 23:23:00,
2013-05-16 18:28:00,91.2,31.6,25.31,SW,225,10.3,13.9,12,0.00,,---,0.00,VWS V14.01,2013-05-16 23:28:00,
2013-05-16 18:33:00,90.9,31.3,25.31,WSW,248,13.2,17.5,12,0.00,,---,0.00,VWS V14.01,2013-05-16 23:33:00,
2013-05-16 18:38:00,90.3,30.9,25.28,SW,225,12.1,12.1,12,0.00,,---,0.00,VWS V14.01,2013-05-16 23:38:00,
2013-05-16 18:43:00,91.2,31.6,25.28,WNW,292,7.4,7.4,12,0.00,,---,0.00,VWS V14.01,2013-05-16 23:43:00,
2013-05-16 18:48:00,91.2,31.6,25.28,SSW,202,3.4,3.4,12,0.00,,---,0.00,VWS V14.01,2013-05-16 23:48:00,
2013-05-16 18:53:00,91.2,31.6,25.28,SW,225,16.3,16.3,12,0.00,,---,0.00,VWS V14.01,2013-05-16 23:53:00,
2013-05-16 18:58:00,90.1,30.7,25.28,WSW,248,6.7,10.5,12,0.00,,---,0.00,VWS V14.01,2013-05-16 23:58:00,
2013-05-16 19:03:00,90.1,30.7,25.28,West,270,10.3,10.3,12,0.00,,---,0.00,VWS V14.01,2013-05-17 00:03:00,
2013-05-16 19:08:00,90.9,31.3,25.28,NW,315,8.7,8.7,12,0.00,,---,0.00,VWS V14.01,2013-05-17 00:08:00,
2013-05-16 19:13:00,90.1,30.7,25.28,SW,225,11.4,11.4,12,0.00,,---,0.00,VWS V14.01,2013-05-17 00:13:00,
2013-05-16 19:18:00,89.6,30.3,25.28,SW,225,7.6,7.6,12,0.00,,---,0.00,VWS V14.01,2013-05-17 00:18:00,
2013-05-16 19:23:00,89.8,30.5,25.28,SW,225,7.4,7.4,12,0.00,,---,0.00,VWS V14.01,2013-05-17 00:23:00,
2013-05-16 19:28:00,89.4,32.2,25.28,WSW,248,7.8,8.1,13,0.00,,---,0.00,VWS V14.01,2013-05-17 00:28:00,
2013-05-16 19:33:00,89.6,30.3,25.28,SW,225,6.3,6.5,12,0.00,,---,0.00,VWS V14.01,2013-05-17 00:33:00,
2013-05-16 19:38:00,89.2,32.0,25.28,WSW,248,8.7,10.3,13,0.00,,---,0.00,VWS V14.01,2013-05-17 00:38:00,
2013-05-16 19:43:00,88.7,31.6,25.28,SW,225,10.5,10.5,13,0.00,,---,0.00,VWS V14.01,2013-05-17 00:43:00,
2013-05-16 19:48:00,88.3,31.3,25.28,WSW,248,13.6,13.6,13,0.00,,---,0.00,VWS V14.01,2013-05-17 00:48:00,
2013-05-16 19:53:00,88.0,24.7,25.28,WSW,248,8.1,9.0,10,0.00,,---,0.00,VWS V14.01,2013-05-17 00:53:00,
2013-05-16 19:58:00,87.6,26.7,25.28,West,270,11.0,11.4,11,0.00,,---,0.00,VWS V14.01,2013-05-17 00:58:00,
2013-05-16 20:03:00,87.4,26.5,25.28,West,270,8.1,8.1,11,0.00,,---,0.00,VWS V14.01,2013-05-17 01:03:00,
2013-05-16 20:08:00,87.3,26.4,25.28,West,270,6.0,6.0,11,0.00,,---,0.00,VWS V14.01,2013-05-17 01:08:00,
2013-05-16 20:13:00,86.7,26.0,25.28,WNW,292,7.6,7.6,11,0.00,,---,0.00,VWS V14.01,2013-05-17 01:13:00,
2013-05-16 20:18:00,86.4,25.7,25.28,WSW,248,7.4,7.4,11,0.00,,---,0.00,VWS V14.01,2013-05-17 01:18:00,
2013-05-16 20:23:00,85.6,25.2,25.31,West,270,13.0,13.0,11,0.00,,---,0.00,VWS V14.01,2013-05-17 01:23:00,
2013-05-16 20:28:00,84.9,24.6,25.31,West,270,11.0,11.0,11,0.00,,---,0.00,VWS V14.01,2013-05-17 01:28:00,
2013-05-16 20:33:00,84.6,24.3,25.31,WSW,248,10.3,10.3,11,0.00,,---,0.00,VWS V14.01,2013-05-17 01:33:00,
2013-05-16 20:38:00,83.7,23.6,25.31,WSW,248,9.4,9.4,11,0.00,,---,0.00,VWS V14.01,2013-05-17 01:38:00,
2013-05-16 20:43:00,82.8,23.0,25.31,WSW,248,8.1,8.5,11,0.00,,---,0.00,VWS V14.01,2013-05-17 01:43:00,
2013-05-16 20:48:00,81.9,24.3,25.31,WSW,248,6.3,6.3,12,0.00,,---,0.00,VWS V14.01,2013-05-17 01:48:00,
2013-05-16 20:53:00,81.3,23.9,25.31,SW,225,6.5,6.5,12,0.00,,---,0.00,VWS V14.01,2013-05-17 01:53:00,
2013-05-16 20:58:00,80.6,23.4,25.31,SW,225,5.6,5.8,12,0.00,,---,0.00,VWS V14.01,2013-05-17 01:58:00,
2013-05-16 21:03:00,80.4,23.2,25.31,WSW,248,5.6,6.3,12,0.00,,---,0.00,VWS V14.01,2013-05-17 02:03:00,
2013-05-16 21:08:00,80.1,22.9,25.31,SW,225,6.3,6.3,12,0.00,,---,0.00,VWS V14.01,2013-05-17 02:08:00,
2013-05-16 21:13:00,79.7,22.6,25.31,SW,225,6.3,6.3,12,0.00,,---,0.00,VWS V14.01,2013-05-17 02:13:00,
2013-05-16 21:18:00,79.2,22.2,25.31,SW,225,6.0,6.0,12,0.00,,---,0.00,VWS V14.01,2013-05-17 02:18:00,
2013-05-16 21:23:00,78.8,22.0,25.31,SW,225,5.6,5.8,12,0.00,,---,0.00,VWS V14.01,2013-05-17 02:23:00,
2013-05-16 21:28:00,78.3,23.4,25.31,SSW,202,3.6,3.6,13,0.00,,---,0.00,VWS V14.01,2013-05-17 02:28:00,
2013-05-16 21:33:00,77.7,23.0,25.31,South,180,2.2,2.5,13,0.00,,---,0.00,VWS V14.01,2013-05-17 02:33:00,
2013-05-16 21:38:00,77.4,22.7,25.31,South,180,3.6,3.6,13,0.00,,---,0.00,VWS V14.01,2013-05-17 02:38:00,
2013-05-16 21:43:00,77.2,22.6,25.31,South,180,4.0,4.3,13,0.00,,---,0.00,VWS V14.01,2013-05-17 02:43:00,
2013-05-16 21:48:00,76.6,22.1,25.31,South,180,5.4,5.4,13,0.00,,---,0.00,VWS V14.01,2013-05-17 02:48:00,
2013-05-16 21:53:00,77.0,22.4,25.28,South,180,5.4,5.4,13,0.00,,---,0.00,VWS V14.01,2013-05-17 02:53:00,
2013-05-16 21:58:00,76.5,22.0,25.28,South,180,3.8,4.7,13,0.00,,---,0.00,VWS V14.01,2013-05-17 02:58:00,
2013-05-16 22:03:00,75.4,21.2,25.28,South,180,2.9,2.9,13,0.00,,---,0.00,VWS V14.01,2013-05-17 03:03:00,
2013-05-16 22:08:00,75.0,20.9,25.31,South,180,2.9,3.6,13,0.00,,---,0.00,VWS V14.01,2013-05-17 03:08:00,
2013-05-16 22:13:00,74.8,20.7,25.31,South,180,3.8,4.3,13,0.00,,---,0.00,VWS V14.01,2013-05-17 03:13:00,
2013-05-16 22:18:00,73.9,20.0,25.31,SSW,202,3.1,4.0,13,0.00,,---,0.00,VWS V14.01,2013-05-17 03:18:00,
2013-05-16 22:23:00,74.1,20.2,25.31,SSW,202,2.2,3.4,13,0.00,,---,0.00,VWS V14.01,2013-05-17 03:23:00,
2013-05-16 22:28:00,74.7,20.6,25.31,South,180,3.1,3.1,13,0.00,,---,0.00,VWS V14.01,2013-05-17 03:28:00,
2013-05-16 22:33:00,74.5,20.5,25.31,South,180,3.6,3.8,13,0.00,,---,0.00,VWS V14.01,2013-05-17 03:33:00,
2013-05-16 22:38:00,73.6,19.8,25.31,South,180,4.9,6.3,13,0.00,,---,0.00,VWS V14.01,2013-05-17 03:38:00,
2013-05-16 22:43:00,74.1,20.2,25.31,South,180,4.7,5.8,13,0.00,,---,0.00,VWS V14.01,2013-05-17 03:43:00,
2013-05-16 22:48:00,73.2,21.2,25.31,South,180,4.3,5.8,14,0.00,,---,0.00,VWS V14.01,2013-05-17 03:48:00,
2013-05-16 22:53:00,72.9,20.9,25.34,South,180,5.4,5.4,14,0.00,,---,0.00,VWS V14.01,2013-05-17 03:53:00,
2013-05-16 22:58:00,72.7,20.8,25.34,SSW,202,5.6,5.6,14,0.00,,---,0.00,VWS V14.01,2013-05-17 03:58:00,
2013-05-16 23:01:00,72.7,20.8,25.34,South,180,5.4,5.8,14,0.00,,---,0.00,VWS V14.01,2013-05-17 04:01:00,
2013-05-16 23:06:00,73.0,21.1,25.34,SSE,158,6.3,6.3,14,0.00,,---,0.00,VWS V14.01,2013-05-17 04:06:00,
2013-05-16 23:11:00,73.4,19.6,25.34,South,180,5.4,5.4,13,0.00,,---,0.00,VWS V14.01,2013-05-17 04:11:00,
2013-05-16 23:16:00,73.0,21.1,25.34,South,180,4.9,4.9,14,0.00,,---,0.00,VWS V14.01,2013-05-17 04:16:00,
2013-05-16 23:21:00,72.9,20.9,25.34,South,180,4.3,5.6,14,0.00,,---,0.00,VWS V14.01,2013-05-17 04:21:00,
2013-05-16 23:26:00,72.5,20.6,25.34,South,180,3.1,4.3,14,0.00,,---,0.00,VWS V14.01,2013-05-17 04:26:00,
2013-05-16 23:31:00,72.9,20.9,25.34,SSW,202,3.6,4.0,14,0.00,,---,0.00,VWS V14.01,2013-05-17 04:31:00,
2013-05-16 23:36:00,72.3,20.5,25.34,South,180,3.6,4.7,14,0.00,,---,0.00,VWS V14.01,2013-05-17 04:36:00,
2013-05-16 23:41:00,72.1,20.4,25.34,South,180,3.8,3.8,14,0.00,,---,0.00,VWS V14.01,2013-05-17 04:41:00,
2013-05-16 23:46:00,72.5,20.6,25.34,South,180,3.4,3.6,14,0.00,,---,0.00,VWS V14.01,2013-05-17 04:46:00,
2013-05-16 23:51:00,73.0,21.1,25.34,South,180,3.6,3.6,14,0.00,,---,0.00,VWS V14.01,2013-05-17 04:51:00,
2013-05-16 23:56:00,73.6,19.8,25.34,SSW,202,4.0,5.4,13,0.00,,---,0.00,VWS V14.01,2013-05-17 04:56:00,